Time;durP1;ratioP1;P1;durP2;ratioP2;P2;SDS_P1;SDS_P2;PMS_P1;PMS_P2;Temp;Humidity;BMP_temperature;BMP_pressure;BME280_temperature;BME280_humidity;BME280_pressure;Samples;Min_cycle;Max_cycle;Signal;HPM_P1;HPM_P2
2021/09/30 04:24:05;;;;;;;11.75;3.30;;;;;;;8.38;100.00;102310.88;2602102;54;20651;-77
2021/09/30 04:34:17;;;;;;;10.63;3.55;;;;;;;8.44;100.00;102332.03;2610352;36;20037;-76
2021/09/30 04:36:54;;;;;;;12.88;3.53;;;;;;;8.56;100.00;102338.53;2604428;36;20626;-78
2021/09/30 04:40:15;;;;;;;15.77;4.03;;;;;;;8.55;100.00;102347.53;2606261;36;20030;-76
2021/09/30 04:43:01;;;;;;;10.15;3.80;;;;;;;8.59;100.00;102358.00;2620990;36;20026;-76
2021/09/30 04:45:34;;;;;;;15.65;3.97;;;;;;;8.62;100.00;102354.28;2617876;36;20580;-76
2021/09/30 04:48:28;;;;;;;;;;;;;;;;;;;;;
2021/09/30 04:57:08;;;;;;;14.32;3.83;;;;;;;8.59;100.00;102343.72;2609897;36;20035;-75
2021/09/30 14:32:16;;;;;;;5.50;1.67;;;;;;;13.44;100.00;102157.34;2614413;36;20038;-74
2021/09/30 14:34:48;;;;;;;6.13;2.03;;;;;;;13.38;100.00;102147.03;2652757;36;20621;-78
2021/09/30 14:47:44;;;;;;;8.52;1.75;;;;;;;13.32;100.00;102137.53;2633922;36;20058;-76
2021/09/30 14:50:24;;;;;;;5.82;1.83;;;;;;;13.27;100.00;102127.09;2616787;36;20031;-74
2021/09/30 14:53:26;;;;;;;7.90;2.28;;;;;;;13.22;100.00;102128.44;2633724;36;20023;-74
2021/09/30 14:56:02;;;;;;;8.48;2.20;;;;;;;13.08;100.00;102132.25;2616415;31;20606;-73
2021/09/30 14:58:35;;;;;;;6.40;2.10;;;;;;;13.03;100.00;102127.19;2652221;36;20584;-74
2021/09/30 15:01:12;;;;;;;8.20;1.92;;;;;;;12.99;100.00;102123.00;2617239;36;20150;-72
2021/09/30 15:03:45;;;;;;;6.80;1.63;;;;;;;12.89;100.00;102122.88;2615878;36;20026;-74
2021/09/30 15:06:20;;;;;;;8.23;1.63;;;;;;;12.86;100.00;102123.09;2652865;36;20446;-75
2021/09/30 15:09:24;;;;;;;8.70;1.63;;;;;;;12.76;100.00;102116.69;2617304;36;20022;-74
2021/09/30 15:11:57;;;;;;;10.40;1.95;;;;;;;12.79;100.00;102119.16;2617038;36;20067;-75
2021/09/30 15:14:29;;;;;;;9.50;1.90;;;;;;;12.68;100.00;102111.06;2616830;36;20412;-73
2021/09/30 15:17:04;;;;;;;10.77;1.90;;;;;;;12.82;100.00;102105.41;2613928;36;20046;-75
2021/09/30 15:19:47;;;;;;;5.07;1.45;;;;;;;12.76;100.00;102100.50;2616913;31;20041;-77
2021/09/30 15:22:24;;;;;;;4.55;1.55;;;;;;;12.82;100.00;102099.16;2616262;36;20564;-74
2021/09/30 15:27:29;;;;;;;5.10;1.90;;;;;;;12.67;100.00;102090.41;2613528;54;20889;-74
2021/09/30 15:29:57;;;;;;;4.75;1.35;;;;;;;12.66;100.00;102077.88;2616824;36;20066;-74
2021/09/30 15:32:26;;;;;;;5.67;1.80;;;;;;;12.68;100.00;102076.78;2615039;36;20069;-78
2021/09/30 15:37:52;;;;;;;5.07;1.40;;;;;;;12.73;100.00;102077.28;2612540;54;20038;-74
2021/09/30 15:40:38;;;;;;;8.63;1.70;;;;;;;12.72;100.00;102077.41;2613394;36;20452;-76
2021/09/30 15:43:11;;;;;;;8.27;1.77;;;;;;;12.64;100.00;102061.78;2631054;36;20515;-77
2021/09/30 15:45:40;;;;;;;7.00;1.80;;;;;;;12.62;100.00;102067.31;2614150;36;20026;-75
2021/09/30 15:48:09;;;;;;;6.18;1.55;;;;;;;12.59;100.00;102064.00;2648674;36;20030;-75
2021/09/30 15:50:39;;;;;;;6.72;2.53;;;;;;;12.58;100.00;102064.97;2614558;36;20043;-74
2021/09/30 15:53:13;;;;;;;8.65;1.55;;;;;;;12.53;100.00;102062.66;2615762;36;20030;-73
2021/09/30 15:55:44;;;;;;;9.68;1.83;;;;;;;12.48;100.00;102059.44;2616451;36;20038;-73
2021/09/30 15:58:14;;;;;;;9.32;1.80;;;;;;;12.51;100.00;102059.19;2632950;36;20026;-73
2021/09/30 16:00:42;;;;;;;7.88;1.90;;;;;;;12.50;100.00;102062.00;2615442;36;20026;-77
2021/09/30 16:03:11;;;;;;;7.97;1.93;;;;;;;12.51;100.00;102051.06;2614384;36;20537;-77
2021/09/30 16:05:42;;;;;;;11.20;2.00;;;;;;;12.55;100.00;102055.28;2615290;36;20751;-74
2021/09/30 16:08:13;;;;;;;12.57;2.20;;;;;;;12.53;100.00;102050.97;2612420;36;20041;-78
2021/09/30 16:10:42;;;;;;;6.63;1.80;;;;;;;12.54;100.00;102050.00;2614297;36;20278;-75
2021/09/30 16:13:11;;;;;;;6.55;1.40;;;;;;;12.47;100.00;102046.94;2613764;36;20043;-74
2021/09/30 16:15:42;;;;;;;7.95;2.00;;;;;;;12.43;100.00;102040.03;2631602;36;20030;-73
2021/09/30 16:18:11;;;;;;;9.93;1.90;;;;;;;12.43;100.00;102042.72;2614057;36;20059;-75
2021/09/30 16:20:43;;;;;;;7.43;1.90;;;;;;;12.43;100.00;102035.47;2615103;36;20026;-73
2021/09/30 16:23:23;;;;;;;7.72;2.00;;;;;;;12.41;100.00;102041.97;2615820;31;20035;-80
2021/09/30 16:25:59;;;;;;;7.55;2.03;;;;;;;12.45;100.00;102027.25;2615180;36;20082;-75
2021/09/30 16:28:39;;;;;;;8.18;1.85;;;;;;;12.38;100.00;102032.28;2651770;31;20603;-74
2021/09/30 16:31:10;;;;;;;6.55;1.90;;;;;;;12.38;100.00;102024.19;2615006;36;20030;-74
2021/09/30 16:33:39;;;;;;;5.15;2.05;;;;;;;12.39;100.00;102030.44;2615023;36;20080;-76
2021/09/30 16:36:07;;;;;;;7.60;1.60;;;;;;;12.38;100.00;102020.63;2616535;36;20044;-75
2021/09/30 16:38:41;;;;;;;8.57;1.90;;;;;;;12.37;100.00;102018.91;2616126;36;20034;-74
2021/09/30 16:41:27;;;;;;;5.50;1.95;;;;;;;12.32;100.00;102018.41;2616886;31;20082;-75
